Air Park, Nebraska
Current Conditions -  °F | °C
As of 1:54 AM on Saturday 29 Nov 2014 (Local Time) from KLNK Reporting Station
Clear Clear  
Wind Chill: 38°   Ceiling: Unl
Heat Index: 41°   Visibility: 10mi
Dew Point: 31°   Wind: 5mph
Humidity: 67%   Direction: 190°S
Pressure: 29.61"   Gusts: NA
Location:  40.8731°N, 96.8015°W
Report Text: KLNK 290754Z AUTO 19004KT 10SM CLR 05/M01 A2961 RMK AO2 SLP027 T00501006
Loading
Personal Weather Stations






























Interactive Weather Map New forecast layout! Learn more

10-Day Weather Forecast

Advertisements
Track Severe Weather on mobile